createdAt,value
2023-12-18T00:01:03.292Z,100499.64
2023-12-18T00:03:42.785Z,100501.23
2023-12-18T00:06:09.607Z,100498.64
2023-12-18T00:08:36.348Z,100498.16
2023-12-18T00:11:03.265Z,100497.52
2023-12-18T00:13:30.114Z,100496.54
2023-12-18T00:15:56.841Z,100492.23
2023-12-18T00:18:23.689Z,100491.06
2023-12-18T00:20:53.508Z,100489.20
2023-12-18T00:23:20.516Z,100488.38
2023-12-18T00:25:47.233Z,100485.98
2023-12-18T00:28:13.977Z,100474.86
2023-12-18T00:30:40.799Z,100475.45
2023-12-18T00:33:07.718Z,100480.56
2023-12-18T00:35:34.549Z,100478.88
2023-12-18T00:38:01.374Z,100475.79
2023-12-18T00:40:28.186Z,100475.84
2023-12-18T00:42:54.997Z,100475.91
2023-12-18T00:45:21.792Z,100470.52
2023-12-18T00:47:48.631Z,100469.86
2023-12-18T00:50:15.619Z,100462.38
2023-12-18T00:52:42.449Z,100462.05
2023-12-18T00:55:09.517Z,100455.44
2023-12-18T00:57:36.303Z,100458.63
2023-12-18T01:00:04.951Z,100461.81
2023-12-18T01:02:31.965Z,100460.61
2023-12-18T01:04:58.744Z,100460.48
2023-12-18T01:07:25.542Z,100454.77
2023-12-18T01:09:56.858Z,100446.60
2023-12-18T01:12:23.640Z,100441.58
2023-12-18T01:14:51.082Z,100442.86
2023-12-18T01:17:22.497Z,100445.70
2023-12-18T01:19:53.723Z,100440.66
2023-12-18T01:22:20.816Z,100440.69
2023-12-18T01:24:47.597Z,100442.10
2023-12-18T01:27:14.385Z,100444.20
2023-12-18T01:29:41.525Z,100442.13
2023-12-18T01:32:11.473Z,100440.95
2023-12-18T01:34:38.956Z,100441.48
2023-12-18T01:37:06.277Z,100439.77
2023-12-18T01:39:33.057Z,100439.95
2023-12-18T01:42:00.130Z,100439.64
2023-12-18T01:44:27.303Z,100442.11
2023-12-18T01:46:56.137Z,100438.13
2023-12-18T01:49:24.127Z,100436.93
2023-12-18T01:51:51.056Z,100432.60
2023-12-18T01:54:22.965Z,100426.89
2023-12-18T01:56:55.584Z,100425.67
2023-12-18T01:59:24.328Z,100418.19
2023-12-18T02:01:52.178Z,100420.69
2023-12-18T02:04:20.281Z,100423.33
2023-12-18T02:06:48.255Z,100420.77
2023-12-18T02:09:16.189Z,100413.66
2023-12-18T02:11:46.184Z,100410.05
2023-12-18T02:14:13.720Z,100406.58
2023-12-18T02:16:41.424Z,100408.01
2023-12-18T02:19:24.537Z,100409.61
2023-12-18T02:21:51.671Z,100417.14
2023-12-18T02:24:19.349Z,100423.80
2023-12-18T02:26:47.587Z,100423.98
2023-12-18T02:29:14.935Z,100420.70
2023-12-18T02:31:42.917Z,100416.20
2023-12-18T02:34:09.994Z,100412.91
2023-12-18T02:36:36.931Z,100412.42
2023-12-18T02:39:03.768Z,100409.83
2023-12-18T02:41:30.570Z,100410.39
2023-12-18T02:43:57.801Z,100412.66
2023-12-18T02:46:24.532Z,100411.98
2023-12-18T02:48:51.407Z,100411.81
2023-12-18T02:51:18.196Z,100411.84
2023-12-18T02:53:44.952Z,100406.10
2023-12-18T02:56:13.697Z,100404.38
2023-12-18T02:58:41.283Z,100404.90
2023-12-18T03:01:08.514Z,100401.60
2023-12-18T03:03:35.447Z,100402.86
2023-12-18T03:06:02.575Z,100404.80
2023-12-18T03:08:29.527Z,100408.11
2023-12-18T03:10:56.360Z,100403.41
2023-12-18T03:13:23.190Z,100396.80
2023-12-18T03:15:50.098Z,100396.09
2023-12-18T03:18:17.056Z,100394.18
2023-12-18T03:20:43.853Z,100387.40
2023-12-18T03:23:10.591Z,100386.20
2023-12-18T03:25:37.419Z,100382.92
2023-12-18T03:28:04.357Z,100383.44
2023-12-18T03:30:31.194Z,100379.09
2023-12-18T03:33:00.144Z,100374.90
2023-12-18T03:35:26.926Z,100369.34
2023-12-18T03:37:53.702Z,100369.88
2023-12-18T03:40:20.432Z,100372.33
2023-12-18T03:42:47.186Z,100369.03
2023-12-18T03:45:14.147Z,100366.44
2023-12-18T03:47:41.385Z,100366.43
2023-12-18T03:50:08.613Z,100364.88
2023-12-18T03:52:35.623Z,100365.91
2023-12-18T03:55:02.686Z,100363.13
2023-12-18T03:57:29.465Z,100358.24
2023-12-18T03:59:58.193Z,100359.63
2023-12-18T04:02:25.495Z,100363.79
2023-12-18T04:04:53.256Z,100363.08
2023-12-18T04:07:20.380Z,100363.08
2023-12-18T04:09:47.296Z,100360.46
2023-12-18T04:12:14.316Z,100358.89
2023-12-18T04:14:43.566Z,100362.56
2023-12-18T04:17:10.288Z,100361.52
2023-12-18T04:19:37.088Z,100365.35
2023-12-18T04:22:04.136Z,100369.37
2023-12-18T04:24:30.909Z,100364.15
2023-12-18T04:26:57.693Z,100363.48
2023-12-18T04:29:24.380Z,100366.09
2023-12-18T04:31:52.007Z,100376.02
2023-12-18T04:34:18.739Z,100378.46
2023-12-18T04:36:45.699Z,100374.97
2023-12-18T04:39:12.742Z,100376.04
2023-12-18T04:41:39.573Z,100378.84
2023-12-18T04:44:06.470Z,100378.49
2023-12-18T04:46:37.138Z,100375.89
2023-12-18T04:49:05.760Z,100377.80
2023-12-18T04:51:33.096Z,100373.11
2023-12-18T04:54:00.561Z,100371.88
2023-12-18T04:56:27.504Z,100376.23
2023-12-18T04:58:54.328Z,100380.23
2023-12-18T05:01:21.313Z,100379.36
2023-12-18T05:03:48.191Z,100377.95
2023-12-18T05:06:24.487Z,100377.42
2023-12-18T05:08:51.759Z,100382.46
2023-12-18T05:11:20.700Z,100383.51
2023-12-18T05:13:47.689Z,100381.59
2023-12-18T05:16:15.856Z,100380.18
2023-12-18T05:18:43.348Z,100382.46
2023-12-18T05:21:11.442Z,100384.39
2023-12-18T05:23:39.468Z,100381.27
2023-12-18T05:26:06.542Z,100381.95
2023-12-18T05:28:34.512Z,100386.65
2023-12-18T05:31:01.346Z,100389.60
2023-12-18T05:33:28.180Z,100391.88
2023-12-18T05:35:54.945Z,100386.14
2023-12-18T05:38:21.691Z,100384.05
2023-12-18T05:40:48.525Z,100384.23
2023-12-18T05:43:15.270Z,100380.91
2023-12-18T05:45:42.073Z,100380.59
2023-12-18T05:48:08.998Z,100380.07
2023-12-18T05:50:35.925Z,100375.05
2023-12-18T05:53:02.742Z,100372.45
2023-12-18T05:55:29.477Z,100371.55
2023-12-18T05:57:56.277Z,100375.93
2023-12-18T06:00:23.152Z,100372.62
2023-12-18T06:02:49.918Z,100368.27
2023-12-18T06:05:16.805Z,100366.02
2023-12-18T06:07:43.561Z,100366.04
2023-12-18T06:10:10.415Z,100373.02
2023-12-18T06:12:37.839Z,100371.46
2023-12-18T06:15:06.220Z,100378.27
2023-12-18T06:17:33.079Z,100384.91
2023-12-18T06:19:59.947Z,100385.79
2023-12-18T06:22:26.834Z,100381.98
2023-12-18T06:24:53.698Z,100375.55
2023-12-18T06:27:20.644Z,100370.68
2023-12-18T06:29:47.636Z,100372.27
2023-12-18T06:32:15.002Z,100379.95
2023-12-18T06:34:43.526Z,100380.48
2023-12-18T06:37:10.555Z,100377.89
2023-12-18T06:39:37.343Z,100382.95
2023-12-18T06:42:04.500Z,100381.41
2023-12-18T06:44:31.288Z,100387.51
2023-12-18T06:46:58.130Z,100382.99
2023-12-18T06:49:25.045Z,100382.83
2023-12-18T06:51:52.113Z,100382.32
2023-12-18T06:54:18.974Z,100384.42
2023-12-18T06:56:46.413Z,100385.46
2023-12-18T06:59:13.262Z,100385.81
2023-12-18T07:01:40.155Z,100375.69
2023-12-18T07:04:07.046Z,100368.38
2023-12-18T07:06:34.414Z,100363.98
2023-12-18T07:09:01.279Z,100362.59
2023-12-18T07:11:28.174Z,100365.33
2023-12-18T07:13:54.924Z,100360.60
2023-12-18T07:16:22.981Z,100359.33
2023-12-18T07:18:50.015Z,100362.43
2023-12-18T07:21:17.113Z,100361.00
2023-12-18T07:23:43.955Z,100361.31
2023-12-18T07:26:14.004Z,100366.85
2023-12-18T07:28:41.792Z,100367.50
2023-12-18T07:31:09.257Z,100360.84
2023-12-18T07:33:36.150Z,100361.14
2023-12-18T07:36:03.685Z,100362.66
2023-12-18T07:38:30.885Z,100363.83
2023-12-18T07:40:57.755Z,100368.14
2023-12-18T07:43:24.536Z,100373.13
2023-12-18T07:45:51.362Z,100382.65
2023-12-18T07:48:22.065Z,100384.34
2023-12-18T07:50:48.994Z,100386.52
2023-12-18T07:53:15.919Z,100387.85
2023-12-18T07:55:42.916Z,100395.12
2023-12-18T07:58:09.692Z,100395.60
2023-12-18T08:00:36.668Z,100399.31
2023-12-18T08:03:03.993Z,100395.52
2023-12-18T08:05:31.496Z,100390.86
2023-12-18T08:07:58.383Z,100390.98
2023-12-18T08:10:25.315Z,100389.15
2023-12-18T08:12:52.324Z,100387.41
2023-12-18T08:15:19.332Z,100388.90
2023-12-18T08:17:46.205Z,100390.46
2023-12-18T08:20:14.195Z,100388.38
2023-12-18T08:22:41.126Z,100387.71
2023-12-18T08:25:08.376Z,100386.00
2023-12-18T08:27:35.566Z,100387.95
2023-12-18T08:30:09.574Z,100388.12
2023-12-18T08:32:36.328Z,100384.77
2023-12-18T08:35:03.283Z,100382.80
2023-12-18T08:37:30.090Z,100375.08
2023-12-18T08:39:56.942Z,100373.32
2023-12-18T08:42:23.881Z,100369.61
2023-12-18T08:44:50.924Z,100366.77
2023-12-18T08:47:17.993Z,100368.64
2023-12-18T08:49:44.797Z,100371.41
2023-12-18T08:52:11.673Z,100379.77
2023-12-18T08:54:38.476Z,100382.85
2023-12-18T08:57:05.257Z,100379.81
2023-12-18T08:59:32.035Z,100374.12
2023-12-18T09:01:58.831Z,100382.41
2023-12-18T09:04:26.100Z,100383.35
2023-12-18T09:06:53.175Z,100381.36
2023-12-18T09:09:21.393Z,100382.48
2023-12-18T09:11:48.307Z,100376.76
2023-12-18T09:14:15.074Z,100375.55
2023-12-18T09:16:41.895Z,100375.08
2023-12-18T09:19:09.087Z,100376.13
2023-12-18T09:21:36.058Z,100378.08
2023-12-18T09:24:02.953Z,100376.35
2023-12-18T09:26:29.773Z,100371.67
2023-12-18T09:28:56.862Z,100362.73
2023-12-18T09:31:24.146Z,100357.29
2023-12-18T09:33:51.076Z,100357.23
2023-12-18T09:36:18.617Z,100356.86
2023-12-18T09:38:45.485Z,100352.42
2023-12-18T09:41:21.286Z,100348.67
2023-12-18T09:43:50.793Z,100356.46
2023-12-18T09:46:21.492Z,100358.33
2023-12-18T09:48:49.478Z,100360.88
2023-12-18T09:51:24.503Z,100357.85
2023-12-18T09:53:53.189Z,100353.39
2023-12-18T09:56:24.233Z,100357.19
2023-12-18T09:58:55.541Z,100349.70
2023-12-18T10:01:23.702Z,100344.82
2023-12-18T10:03:50.776Z,100339.35
2023-12-18T10:06:18.803Z,100332.54
2023-12-18T10:08:50.581Z,100331.96
2023-12-18T10:11:26.179Z,100339.08
2023-12-18T10:13:54.369Z,100332.38
2023-12-18T10:16:22.354Z,100334.95
2023-12-18T10:18:50.179Z,100331.20
2023-12-18T10:21:23.448Z,100324.95
2023-12-18T10:23:54.089Z,100325.73
2023-12-18T10:26:22.526Z,100330.36
2023-12-18T10:28:53.457Z,100328.75
2023-12-18T10:31:20.991Z,100327.07
2023-12-18T10:33:48.094Z,100326.36
2023-12-18T10:36:19.411Z,100325.39
2023-12-18T10:38:50.722Z,100323.41
2023-12-18T10:41:23.416Z,100313.19
2023-12-18T10:43:51.013Z,100311.80
2023-12-18T10:46:19.135Z,100309.78
2023-12-18T10:48:51.636Z,100309.23
2023-12-18T10:51:21.055Z,100300.96
2023-12-18T10:53:49.187Z,100305.94
2023-12-18T10:56:17.810Z,100311.37
2023-12-18T10:58:45.419Z,100311.64
2023-12-18T11:01:15.782Z,100314.27
2023-12-18T11:03:43.938Z,100310.71
2023-12-18T11:06:11.788Z,100304.78
2023-12-18T11:08:38.631Z,100308.05
2023-12-18T11:11:06.509Z,100304.82
2023-12-18T11:13:48.604Z,100300.89
2023-12-18T11:16:15.297Z,100288.23
2023-12-18T11:19:16.057Z,100283.57
2023-12-18T11:21:49.774Z,100277.23
2023-12-18T11:24:17.977Z,100273.94
2023-12-18T11:26:46.822Z,100274.40
2023-12-18T11:29:33.394Z,100269.21
2023-12-18T11:32:00.256Z,100260.39
2023-12-18T11:34:27.129Z,100250.12
2023-12-18T11:36:54.080Z,100242.78
2023-12-18T11:39:28.208Z,100238.69
2023-12-18T11:41:55.008Z,100242.55
2023-12-18T11:44:28.304Z,100248.80
2023-12-18T11:46:55.441Z,100249.40
2023-12-18T11:49:23.588Z,100241.98
2023-12-18T11:51:50.838Z,100239.02
2023-12-18T11:54:23.802Z,100240.59
2023-12-18T11:56:52.106Z,100241.13
2023-12-18T11:59:20.355Z,100243.14
2023-12-18T12:01:47.857Z,100235.05
2023-12-18T12:04:16.758Z,100228.97
2023-12-18T12:06:46.715Z,100228.88
2023-12-18T12:09:13.547Z,100226.11
2023-12-18T12:11:40.421Z,100217.41
2023-12-18T12:14:07.236Z,100222.77
2023-12-18T12:16:34.019Z,100225.67
2023-12-18T12:19:03.818Z,100227.34
2023-12-18T12:21:38.898Z,100230.41
2023-12-18T12:24:12.263Z,100225.14
2023-12-18T12:26:39.159Z,100235.30
2023-12-18T12:29:06.729Z,100239.70
2023-12-18T12:31:35.267Z,100241.75
2023-12-18T12:34:02.989Z,100239.77
2023-12-18T12:36:30.994Z,100233.38
2023-12-18T12:38:58.629Z,100228.10
2023-12-18T12:41:25.588Z,100232.88
2023-12-18T12:43:52.746Z,100229.59
2023-12-18T12:46:26.551Z,100239.44
2023-12-18T12:48:56.756Z,100243.63
2023-12-18T12:51:24.291Z,100237.04
2023-12-18T12:53:51.192Z,100233.75
2023-12-18T12:56:18.046Z,100224.08
2023-12-18T12:58:44.828Z,100221.18
2023-12-18T13:01:11.695Z,100221.68
2023-12-18T13:03:38.675Z,100227.27
2023-12-18T13:06:05.880Z,100224.55
2023-12-18T13:08:33.817Z,100224.48
2023-12-18T13:11:02.032Z,100232.42
2023-12-18T13:13:29.250Z,100233.20
2023-12-18T13:15:56.083Z,100228.50
2023-12-18T13:18:23.022Z,100226.92
2023-12-18T13:20:49.970Z,100227.65
2023-12-18T13:23:16.808Z,100223.47
2023-12-18T13:25:43.608Z,100216.30
2023-12-18T13:28:10.490Z,100217.52
2023-12-18T13:30:37.674Z,100215.19
2023-12-18T13:33:04.837Z,100220.45
2023-12-18T13:35:31.766Z,100219.35
2023-12-18T13:37:59.733Z,100218.05
2023-12-18T13:40:28.985Z,100218.73
2023-12-18T13:42:55.971Z,100217.81
2023-12-18T13:45:22.931Z,100219.05
2023-12-18T13:47:51.704Z,100220.29
2023-12-18T13:50:18.521Z,100221.58
2023-12-18T13:52:45.793Z,100222.14
2023-12-18T13:55:13.108Z,100227.09
2023-12-18T13:57:46.460Z,100233.07
2023-12-18T14:00:17.144Z,100234.34
2023-12-18T14:02:44.433Z,100227.88
2023-12-18T14:05:11.308Z,100236.36
2023-12-18T14:07:39.278Z,100242.02
2023-12-18T14:10:08.061Z,100238.86
2023-12-18T14:12:36.010Z,100236.20
2023-12-18T14:15:04.010Z,100232.20
2023-12-18T14:17:30.958Z,100235.48
2023-12-18T14:20:04.277Z,100244.02
2023-12-18T14:22:31.210Z,100253.58
2023-12-18T14:24:58.071Z,100256.67
2023-12-18T14:27:24.941Z,100255.69
2023-12-18T14:29:51.737Z,100257.16
2023-12-18T14:32:18.653Z,100252.48
2023-12-18T14:34:45.562Z,100254.14
2023-12-18T14:37:12.763Z,100254.42
2023-12-18T14:39:39.534Z,100255.73
2023-12-18T14:42:08.148Z,100254.09
2023-12-18T14:44:35.505Z,100250.85
2023-12-18T14:47:02.319Z,100243.90
2023-12-18T14:49:29.538Z,100236.45
2023-12-18T14:51:57.157Z,100245.11
2023-12-18T14:54:24.055Z,100257.30
2023-12-18T14:56:53.395Z,100261.30
2023-12-18T14:59:21.174Z,100256.70
2023-12-18T15:01:48.216Z,100252.38
2023-12-18T15:04:19.597Z,100257.20
2023-12-18T15:06:53.453Z,100256.30
2023-12-18T15:09:20.658Z,100259.35
2023-12-18T15:11:47.907Z,100260.48
2023-12-18T15:14:14.748Z,100257.06
2023-12-18T15:16:42.346Z,100255.70
2023-12-18T15:19:09.425Z,100248.71
2023-12-18T15:21:38.561Z,100242.63
2023-12-18T15:24:09.686Z,100238.62
2023-12-18T15:26:38.326Z,100236.36
2023-12-18T15:29:05.170Z,100231.30
2023-12-18T15:31:32.256Z,100242.02
2023-12-18T15:34:02.197Z,100250.27
2023-12-18T15:36:30.627Z,100248.17
2023-12-18T15:38:57.418Z,100248.52
2023-12-18T15:41:24.227Z,100243.75
2023-12-18T15:43:51.116Z,100242.70
2023-12-18T15:46:17.873Z,100240.81
2023-12-18T15:48:45.035Z,100239.44
2023-12-18T15:51:11.994Z,100236.33
2023-12-18T15:53:39.843Z,100231.63
2023-12-18T15:56:07.012Z,100235.71
2023-12-18T15:58:33.914Z,100226.33
2023-12-18T16:01:00.733Z,100221.87
2023-12-18T16:03:27.648Z,100223.03
2023-12-18T16:05:56.069Z,100221.56
2023-12-18T16:08:23.035Z,100216.60
2023-12-18T16:10:50.286Z,100209.03
2023-12-18T16:13:17.026Z,100205.33
2023-12-18T16:15:43.932Z,100203.52
2023-12-18T16:18:10.872Z,100209.39
2023-12-18T16:20:37.810Z,100209.36
2023-12-18T16:23:04.930Z,100205.81
2023-12-18T16:25:31.797Z,100206.10
2023-12-18T16:27:58.675Z,100205.91
2023-12-18T16:30:25.569Z,100206.21
2023-12-18T16:32:52.472Z,100207.57
2023-12-18T16:35:19.529Z,100200.68
2023-12-18T16:37:46.372Z,100196.76
2023-12-18T16:40:13.416Z,100195.98
2023-12-18T16:42:40.480Z,100197.98
2023-12-18T16:45:08.451Z,100195.08
2023-12-18T16:47:35.256Z,100191.67
2023-12-18T16:50:02.427Z,100186.33
2023-12-18T16:52:32.610Z,100189.38
2023-12-18T16:55:00.326Z,100184.37
2023-12-18T16:57:27.548Z,100186.86
2023-12-18T16:59:59.576Z,100188.48
2023-12-18T17:02:29.195Z,100185.72
2023-12-18T17:04:55.985Z,100193.27
2023-12-18T17:07:23.952Z,100190.36
2023-12-18T17:09:50.778Z,100182.37
2023-12-18T17:12:17.643Z,100177.17
2023-12-18T17:14:48.548Z,100176.03
2023-12-18T17:17:15.330Z,100173.48
2023-12-18T17:19:42.134Z,100171.30
2023-12-18T17:22:08.920Z,100164.57
2023-12-18T17:24:35.739Z,100167.96
2023-12-18T17:27:02.736Z,100167.66
2023-12-18T17:29:29.553Z,100167.71
2023-12-18T17:31:56.433Z,100170.41
2023-12-18T17:34:23.254Z,100168.01
2023-12-18T17:36:50.208Z,100171.71
2023-12-18T17:39:17.066Z,100166.16
2023-12-18T17:41:43.868Z,100156.93
2023-12-18T17:44:10.707Z,100154.02
2023-12-18T17:46:39.280Z,100150.92
2023-12-18T17:49:06.935Z,100154.98
2023-12-18T17:51:33.780Z,100165.32
2023-12-18T17:54:02.099Z,100165.00
2023-12-18T17:56:29.027Z,100162.78
2023-12-18T17:58:55.806Z,100164.19
2023-12-18T18:01:22.751Z,100165.09
2023-12-18T18:03:49.635Z,100164.92
2023-12-18T18:06:19.889Z,100159.23
2023-12-18T18:08:47.326Z,100154.54
2023-12-18T18:11:14.784Z,100151.24
2023-12-18T18:13:41.523Z,100146.91
2023-12-18T18:16:08.439Z,100144.33
2023-12-18T18:18:35.339Z,100135.83
2023-12-18T18:21:02.183Z,100135.88
2023-12-18T18:23:28.970Z,100134.52
2023-12-18T18:25:55.920Z,100132.66
2023-12-18T18:28:22.752Z,100132.52
2023-12-18T18:30:50.725Z,100132.04
2023-12-18T18:33:17.880Z,100128.05
2023-12-18T18:35:45.414Z,100123.02
2023-12-18T18:38:12.499Z,100120.24
2023-12-18T18:40:41.668Z,100114.51
2023-12-18T18:43:08.419Z,100112.09
2023-12-18T18:45:36.213Z,100113.87
2023-12-18T18:48:04.303Z,100112.33
2023-12-18T18:50:31.108Z,100111.34
2023-12-18T18:52:57.875Z,100108.93
2023-12-18T18:55:24.757Z,100111.97
2023-12-18T18:57:52.011Z,100106.80
2023-12-18T19:00:20.463Z,100101.45
2023-12-18T19:02:47.282Z,100102.02
2023-12-18T19:05:16.339Z,100095.98
2023-12-18T19:07:43.462Z,100091.14
2023-12-18T19:10:10.672Z,100089.10
2023-12-18T19:12:41.958Z,100082.34
2023-12-18T19:15:08.780Z,100082.02
2023-12-18T19:17:36.524Z,100081.54
2023-12-18T19:20:03.951Z,100082.27
2023-12-18T19:22:30.846Z,100080.52
2023-12-18T19:24:57.716Z,100083.49
2023-12-18T19:27:24.564Z,100082.27
2023-12-18T19:29:51.457Z,100078.47
2023-12-18T19:32:18.685Z,100077.80
2023-12-18T19:34:46.378Z,100073.09
2023-12-18T19:37:15.397Z,100069.09
2023-12-18T19:39:42.170Z,100061.43
2023-12-18T19:42:08.952Z,100062.31
2023-12-18T19:44:36.139Z,100056.05
2023-12-18T19:47:03.215Z,100054.31
2023-12-18T19:49:30.062Z,100053.95
2023-12-18T19:51:57.086Z,100050.65
2023-12-18T19:54:24.449Z,100050.49
2023-12-18T19:56:51.629Z,100047.53
2023-12-18T19:59:18.418Z,100041.65
2023-12-18T20:01:47.086Z,100038.88
2023-12-18T20:04:16.377Z,100036.45
2023-12-18T20:06:45.090Z,100030.73
2023-12-18T20:09:11.949Z,100025.17
2023-12-18T20:11:39.392Z,100025.00
2023-12-18T20:14:06.205Z,100019.03
2023-12-18T20:16:33.310Z,100015.85
2023-12-18T20:19:00.345Z,100011.09
2023-12-18T20:21:27.386Z,100001.97
2023-12-18T20:23:54.463Z,99993.90
2023-12-18T20:26:21.274Z,99991.07
2023-12-18T20:28:48.064Z,99988.95
2023-12-18T20:31:14.937Z,99991.70
2023-12-18T20:33:42.070Z,99990.65
2023-12-18T20:36:08.949Z,99993.24
2023-12-18T20:38:35.800Z,99995.67
2023-12-18T20:41:02.651Z,99990.97
2023-12-18T20:43:30.211Z,99987.80
2023-12-18T20:46:05.634Z,99989.68
2023-12-18T20:48:35.013Z,99981.66
2023-12-18T20:51:01.910Z,99975.55
2023-12-18T20:53:31.601Z,99968.38
2023-12-18T20:56:00.587Z,99961.05
2023-12-18T20:58:28.164Z,99953.55
2023-12-18T21:00:55.174Z,99951.80
2023-12-18T21:03:22.230Z,99944.66
2023-12-18T21:05:49.270Z,99939.43
2023-12-18T21:08:17.543Z,99938.02
2023-12-18T21:10:44.871Z,99937.34
2023-12-18T21:13:16.078Z,99939.08
2023-12-18T21:15:43.924Z,99935.95
2023-12-18T21:18:10.939Z,99937.00
2023-12-18T21:20:37.796Z,99949.04
2023-12-18T21:23:05.128Z,99962.48
2023-12-18T21:25:32.433Z,99968.25
2023-12-18T21:28:00.486Z,99967.55
2023-12-18T21:30:28.160Z,99965.47
2023-12-18T21:32:56.097Z,99962.84
2023-12-18T21:35:23.189Z,99956.37
2023-12-18T21:37:50.031Z,99949.36
2023-12-18T21:40:17.297Z,99940.63
2023-12-18T21:42:45.082Z,99932.77
2023-12-18T21:45:12.244Z,99929.64
2023-12-18T21:47:39.952Z,99930.34
2023-12-18T21:50:07.456Z,99929.16
2023-12-18T21:52:34.366Z,99922.55
2023-12-18T21:55:02.436Z,99915.77
2023-12-18T21:57:29.259Z,99916.51
2023-12-18T21:59:56.215Z,99909.39
2023-12-18T22:02:23.029Z,99902.26
2023-12-18T22:04:49.757Z,99902.44
2023-12-18T22:07:16.620Z,99897.02
2023-12-18T22:09:43.482Z,99892.66
2023-12-18T22:12:10.829Z,99882.35
2023-12-18T22:14:37.737Z,99883.89
2023-12-18T22:17:05.037Z,99886.13
2023-12-18T22:19:31.928Z,99884.75
2023-12-18T22:21:58.911Z,99889.64
2023-12-18T22:24:26.385Z,99891.38
2023-12-18T22:26:53.196Z,99897.81
2023-12-18T22:29:20.023Z,99900.06
2023-12-18T22:31:47.007Z,99901.24
2023-12-18T22:34:14.145Z,99899.48
2023-12-18T22:36:41.098Z,99906.08
2023-12-18T22:39:11.857Z,99901.33
2023-12-18T22:41:41.001Z,99891.49
2023-12-18T22:44:08.114Z,99886.54
2023-12-18T22:46:35.056Z,99885.90
2023-12-18T22:49:02.283Z,99882.66
2023-12-18T22:51:29.196Z,99878.38
2023-12-18T22:53:55.947Z,99870.27
2023-12-18T22:56:23.953Z,99860.38
2023-12-18T22:58:50.749Z,99850.85
2023-12-18T23:01:17.680Z,99847.59
2023-12-18T23:03:44.614Z,99846.27
2023-12-18T23:06:11.351Z,99844.60
2023-12-18T23:08:38.148Z,99842.55
2023-12-18T23:11:04.912Z,99837.55
2023-12-18T23:13:31.660Z,99826.29
2023-12-18T23:15:58.447Z,99814.48
2023-12-18T23:18:25.377Z,99812.39
2023-12-18T23:20:52.396Z,99809.63
2023-12-18T23:23:19.169Z,99803.39
2023-12-18T23:25:46.136Z,99798.52
2023-12-18T23:28:12.860Z,99795.95
2023-12-18T23:30:39.701Z,99787.60
2023-12-18T23:33:13.064Z,99794.30
2023-12-18T23:35:44.649Z,99794.75
2023-12-18T23:38:11.396Z,99795.91
2023-12-18T23:40:38.618Z,99792.85
2023-12-18T23:43:05.451Z,99784.49
2023-12-18T23:45:32.519Z,99772.69
2023-12-18T23:47:59.379Z,99775.33
2023-12-18T23:50:26.199Z,99766.15
2023-12-18T23:52:53.072Z,99763.25
2023-12-18T23:55:19.873Z,99761.58
2023-12-18T23:57:46.715Z,99755.88
